Relatórios de METAR próximas

 

LPAR - Alverca, Portugal
Distance from station: SO 47km
Actualizado: 21/07/2017 17:00
NÃO Actual
Few Clouds
Few Clouds
 Vento de varies
Vento: varies 0 km/h
Temperatura: 25°C
Ponto de Orvalho: 14°C
Humidade: 51%
Barómetro: 1015 hPa
Nuvens: Few Clouds
Visibilidade: 10 km
Cloud details: Few Clouds 1067 m
2017/07/21 16:00 LPAR 211600Z /////KT 9999 FEW035 25/14 Q1015
LPPT - Lisbon/Portela, Portugal
Distance from station: SO 61km
Actualizado: 22/07/2017 03:00
Muito Nublado
Muito Nublado
 Vento de NNO
Vento: NNO 22 km/h
Temperatura: 18°C
Ponto de Orvalho: 15°C
Humidade: 83%
Barómetro: 1016 hPa
Nuvens: Muito Nublado
Visibilidade: 10 km
Cloud details: Muito Nublado 427 m
2017/07/22 02:00 LPPT 220200Z 34012KT 9999 BKN014 18/15 Q1016 WS R03
 
LPMT - Montijo (por-Afb, Portugal
Distance from station: SO 62km
Actualizado: 22/07/2017 03:00
Parc. Nublado
Parc. Nublado
 Vento de N
Vento: N 13 km/h
Temperatura: 18°C
Ponto de Orvalho: 15°C
Humidade: 83%
Barómetro: 1016 hPa
Nuvens: Parc. Nublado
Visibilidade: 10 km
Cloud details: Parc. Nublado 579 m
2017/07/22 02:00 LPMT 220200Z 35007KT 9999 SCT019 18/15 Q1016
LPST - Sintra/Granja (a, Portugal
Distance from station: OSO 72km
Actualizado: 21/07/2017 17:00
NÃO Actual
Parc. Nublado
Parc. Nublado
 Vento de NO
Vento: NO 31 km/h, Rajada: 50 km/h
Temperatura: 21°C
Ponto de Orvalho: 14°C
Humidade: 64%
Barómetro: 1017 hPa
Nuvens: Parc. Nublado
Visibilidade: 10 km
Cloud details: Parc. Nublado 701 m
2017/07/21 16:00 LPST 211600Z 32017G27KT 9999 SCT023 21/14 Q1017
 
LPMR - Monte Real(Por-A, Portugal
Distance from station: NNO 80km
Actualizado: 22/07/2017 03:00
Muito Nublado
Muito Nublado
 Vento de NO
Vento: NO 7 km/h
Temperatura: 16°C
Ponto de Orvalho: 15°C
Humidade: 94%
Barómetro: 1017 hPa
Nuvens: Muito Nublado
Visibilidade: 10 km
Cloud details: Muito Nublado 396 m
2017/07/22 02:00 LPMR 220200Z 32004KT 9999 BKN013 16/15 Q1017
LPBJ - Beja (por/Ger-Af, Portugal
Distance from station: SSE 139km
Actualizado: 22/07/2017 03:00
Céu Limpo
Céu Limpo
 Vento de ONO
Vento: ONO 15 km/h
Temperatura: 15°C
Ponto de Orvalho: 13°C
Humidade: 88%
Barómetro: 1016 hPa
Resumo: Céu Limpo
Visibilidade: greater than 10 km
2017/07/22 02:00 LPBJ 220200Z 29008KT CAVOK 15/13 Q1016